Time;durP1;ratioP1;P1;durP2;ratioP2;P2;SDS_P1;SDS_P2;PMS_P1;PMS_P2;Temp;Humidity;BMP_temperature;BMP_pressure;BME280_temperature;BME280_humidity;BME280_pressure;Samples;Min_cycle;Max_cycle;Signal;HPM_P1;HPM_P2
2023/01/13 00:01:42;;;;;;;;;;;11.30;99.90;;;;;;5079288;28;19916;-85
2023/01/13 00:04:08;;;;;;;;;;;11.40;99.90;;;;;;5078944;28;19912;-85
2023/01/13 00:06:33;;;;;;;;;;;11.30;99.90;;;;;;5080756;28;19908;-86
2023/01/13 00:08:59;;;;;;;;;;;11.30;99.90;;;;;;5078498;28;19948;-85
2023/01/13 00:11:25;;;;;;;;;;;11.30;99.90;;;;;;5078720;28;19926;-85
2023/01/13 00:13:50;;;;;;;;;;;11.30;99.90;;;;;;5080019;28;20354;-86
2023/01/13 00:16:16;;;;;;;;;;;11.40;99.90;;;;;;5080360;28;19908;-85
2023/01/13 00:18:42;;;;;;;;;;;11.30;99.90;;;;;;5080022;28;19908;-86
2023/01/13 00:21:11;;;;;;;;;;;11.30;99.90;;;;;;5077667;28;20054;-85
2023/01/13 00:23:36;;;;;;;;;;;11.30;99.90;;;;;;5076364;28;19943;-86
2023/01/13 00:26:06;;;;;;;;;;;11.20;99.90;;;;;;5075077;28;19962;-85
2023/01/13 00:28:31;;;;;;;;;;;11.20;99.90;;;;;;5076883;28;19908;-85
2023/01/13 00:31:07;;;;;;;;;;;11.20;99.90;;;;;;5076695;28;19912;-85
2023/01/13 00:33:32;;;;;;;;;;;11.20;99.90;;;;;;5076840;28;19912;-85
2023/01/13 00:35:59;;;;;;;;;;;11.20;99.90;;;;;;5077603;28;19977;-85
2023/01/13 00:38:24;;;;;;;;;;;11.10;99.90;;;;;;5080122;28;19909;-85
2023/01/13 00:40:57;;;;;;;;;;;11.10;99.90;;;;;;5077532;28;19908;-85
2023/01/13 00:43:22;;;;;;;;;;;11.00;99.90;;;;;;5076136;28;19909;-86
2023/01/13 00:45:50;;;;;;;;;;;11.10;99.90;;;;;;5074947;28;19919;-86
2023/01/13 00:48:17;;;;;;;;;;;11.10;99.90;;;;;;5077042;28;19908;-86
2023/01/13 00:50:42;;;;;;;;;;;11.10;99.90;;;;;;5074936;28;19912;-85
2023/01/13 00:53:07;;;;;;;;;;;11.20;99.90;;;;;;5074516;28;20405;-86
2023/01/13 00:55:33;;;;;;;;;;;11.10;99.90;;;;;;5074739;28;19908;-86
2023/01/13 00:58:04;;;;;;;;;;;11.10;99.90;;;;;;5074674;28;19915;-86
2023/01/13 01:00:30;;;;;;;;;;;11.10;99.90;;;;;;5074720;28;20286;-86
2023/01/13 01:02:56;;;;;;;;;;;11.20;99.90;;;;;;5075735;28;19909;-86
2023/01/13 01:05:21;;;;;;;;;;;11.20;99.90;;;;;;5074178;28;19909;-86
2023/01/13 01:07:47;;;;;;;;;;;11.20;99.90;;;;;;5074096;28;19908;-84
2023/01/13 01:10:12;;;;;;;;;;;11.20;99.90;;;;;;5074493;28;19908;-86
2023/01/13 01:12:38;;;;;;;;;;;11.30;99.90;;;;;;5075769;28;19919;-86
2023/01/13 01:15:06;;;;;;;;;;;11.30;99.90;;;;;;5074262;28;19908;-86
2023/01/13 01:17:32;;;;;;;;;;;11.30;99.90;;;;;;5074267;28;20267;-86
2023/01/13 01:19:57;;;;;;;;;;;11.30;99.90;;;;;;5074958;28;19916;-85
2023/01/13 01:22:22;;;;;;;;;;;11.30;99.90;;;;;;5077304;28;19916;-85
2023/01/13 01:24:48;;;;;;;;;;;11.30;99.90;;;;;;5076194;28;19912;-85
2023/01/13 01:27:13;;;;;;;;;;;11.30;99.90;;;;;;5077427;28;19932;-86
2023/01/13 01:29:39;;;;;;;;;;;11.20;99.90;;;;;;5076425;28;19909;-84
2023/01/13 01:32:04;;;;;;;;;;;11.20;99.90;;;;;;5075107;28;19912;-85
2023/01/13 01:34:30;;;;;;;;;;;11.00;99.90;;;;;;5074954;28;19909;-85
2023/01/13 01:36:55;;;;;;;;;;;10.80;99.90;;;;;;5074787;28;19915;-85
2023/01/13 01:39:21;;;;;;;;;;;10.60;99.90;;;;;;5076866;28;20406;-85
2023/01/13 01:45:06;;;;;;;;;;;10.40;99.90;;;;;;5076074;28;20086;-85
2023/01/13 01:47:32;;;;;;;;;;;10.20;99.90;;;;;;5053049;28;19932;-85
2023/01/13 01:49:57;;;;;;;;;;;10.10;99.90;;;;;;5065520;28;19909;-85
2023/01/13 01:52:26;;;;;;;;;;;10.00;99.90;;;;;;5073833;28;19935;-85
2023/01/13 01:54:51;;;;;;;;;;;9.90;99.90;;;;;;5074280;28;19916;-84
2023/01/13 01:57:20;;;;;;;;;;;9.90;99.90;;;;;;5075374;28;20004;-83
2023/01/13 01:59:46;;;;;;;;;;;9.70;99.90;;;;;;5075775;28;19991;-84
2023/01/13 02:02:11;;;;;;;;;;;9.40;99.90;;;;;;5074062;28;19909;-84
2023/01/13 02:04:38;;;;;;;;;;;9.30;99.90;;;;;;5073508;28;19954;-84
2023/01/13 02:07:03;;;;;;;;;;;9.20;99.90;;;;;;5073410;28;20017;-85
2023/01/13 02:09:29;;;;;;;;;;;9.10;99.90;;;;;;5073271;28;19988;-85
2023/01/13 02:14:39;;;;;;;;;;;9.10;99.90;;;;;;5074703;28;19915;-85
2023/01/13 02:17:17;;;;;;;;;;;9.20;99.90;;;;;;5073756;28;19916;-84
2023/01/13 02:20:01;;;;;;;;;;;9.20;99.90;;;;;;5078517;28;20019;-85
2023/01/13 02:22:54;;;;;;;;;;;9.30;99.90;;;;;;5077615;28;19909;-85
2023/01/13 02:25:27;;;;;;;;;;;9.30;99.90;;;;;;5077372;28;20346;-85
2023/01/13 02:27:53;;;;;;;;;;;9.30;99.90;;;;;;5077055;28;20278;-85
2023/01/13 02:33:09;;;;;;;;;;;9.40;99.90;;;;;;5076836;28;20270;-85
2023/01/13 02:35:55;;;;;;;;;;;9.50;99.90;;;;;;5075598;28;20004;-85
2023/01/13 02:38:25;;;;;;;;;;;9.50;99.90;;;;;;5075917;28;19931;-85
2023/01/13 02:44:05;;;;;;;;;;;9.60;99.90;;;;;;5076738;28;20001;-85
2023/01/13 02:44:09;;;;;;;;;;;9.60;99.90;;;;;;5076985;28;19909;-85
2023/01/13 02:46:53;;;;;;;;;;;9.70;99.90;;;;;;5075564;28;19920;-85
2023/01/13 02:49:30;;;;;;;;;;;9.70;99.90;;;;;;5075389;28;19909;-85
2023/01/13 02:51:59;;;;;;;;;;;9.70;99.90;;;;;;5076512;28;20373;-84
2023/01/13 02:54:26;;;;;;;;;;;9.70;99.90;;;;;;5075213;28;19939;-85
2023/01/13 02:56:53;;;;;;;;;;;9.70;99.90;;;;;;5075061;28;19909;-84
2023/01/13 02:59:19;;;;;;;;;;;9.60;99.90;;;;;;5076401;28;19912;-85
2023/01/13 03:01:46;;;;;;;;;;;9.40;99.90;;;;;;5075150;28;19912;-84
2023/01/13 03:04:13;;;;;;;;;;;9.50;99.90;;;;;;5076956;28;19970;-85
2023/01/13 03:06:53;;;;;;;;;;;9.40;99.90;;;;;;5075553;28;19913;-85
2023/01/13 03:09:28;;;;;;;;;;;9.50;99.90;;;;;;5076024;28;20011;-85
2023/01/13 03:12:07;;;;;;;;;;;9.50;99.90;;;;;;5076631;28;19913;-85
2023/01/13 03:14:47;;;;;;;;;;;9.60;99.90;;;;;;5075637;28;20011;-85
2023/01/13 03:17:21;;;;;;;;;;;9.60;99.90;;;;;;5074639;28;19908;-84
2023/01/13 03:19:50;;;;;;;;;;;9.70;99.90;;;;;;5074715;28;19909;-84
2023/01/13 03:22:39;;;;;;;;;;;9.80;99.90;;;;;;5074563;28;19915;-84
2023/01/13 03:25:14;;;;;;;;;;;9.80;99.90;;;;;;5068940;28;20362;-83
2023/01/13 03:27:47;;;;;;;;;;;9.70;99.90;;;;;;5074265;28;19908;-84
2023/01/13 03:30:16;;;;;;;;;;;9.50;99.90;;;;;;5073604;28;19915;-85
2023/01/13 03:32:44;;;;;;;;;;;9.50;99.90;;;;;;5075269;28;19909;-84
2023/01/13 03:35:17;;;;;;;;;;;9.40;99.90;;;;;;5074207;28;19909;-84
2023/01/13 03:37:47;;;;;;;;;;;9.40;99.90;;;;;;5074192;28;19931;-85
2023/01/13 03:40:14;;;;;;;;;;;9.50;99.90;;;;;;5074164;28;19915;-83
2023/01/13 03:44:20;;;;;;;;;;;9.50;99.90;;;;;;5073739;28;19966;-84
2023/01/13 03:45:29;;;;;;;;;;;9.50;99.90;;;;;;5075530;28;20381;-85
2023/01/13 03:47:57;;;;;;;;;;;9.60;99.90;;;;;;5073765;28;19931;-84
2023/01/13 03:50:26;;;;;;;;;;;9.60;99.90;;;;;;5073900;28;20383;-84
2023/01/13 03:52:54;;;;;;;;;;;9.60;99.90;;;;;;5073731;28;19916;-84
2023/01/13 03:55:23;;;;;;;;;;;9.70;99.90;;;;;;5075088;28;19908;-84
2023/01/13 03:57:55;;;;;;;;;;;9.70;99.90;;;;;;5073841;28;19909;-85
2023/01/13 04:00:24;;;;;;;;;;;9.70;99.90;;;;;;5074304;28;19915;-85
2023/01/13 04:02:50;;;;;;;;;;;9.70;99.90;;;;;;5073088;28;20358;-85
2023/01/13 04:05:15;;;;;;;;;;;9.60;99.90;;;;;;5073488;28;19908;-85
2023/01/13 04:07:53;;;;;;;;;;;9.60;99.90;;;;;;5073426;28;19908;-84
2023/01/13 04:10:24;;;;;;;;;;;9.50;99.90;;;;;;5073324;28;19909;-85
2023/01/13 04:13:01;;;;;;;;;;;9.40;99.90;;;;;;5072991;28;19962;-85
2023/01/13 04:15:31;;;;;;;;;;;9.40;99.90;;;;;;5073009;28;19915;-85
2023/01/13 04:18:00;;;;;;;;;;;9.30;99.90;;;;;;5073136;28;19916;-83
2023/01/13 04:20:26;;;;;;;;;;;9.30;99.90;;;;;;5073203;28;19912;-84
2023/01/13 04:22:51;;;;;;;;;;;9.20;99.90;;;;;;5074181;28;20003;-83
2023/01/13 04:25:17;;;;;;;;;;;9.20;99.90;;;;;;5072868;28;20116;-84
2023/01/13 04:27:42;;;;;;;;;;;9.10;99.90;;;;;;5076487;28;20370;-85
2023/01/13 04:30:08;;;;;;;;;;;9.10;99.90;;;;;;5076359;28;19956;-85
2023/01/13 04:32:33;;;;;;;;;;;9.10;99.90;;;;;;5075805;28;19909;-85
2023/01/13 04:34:59;;;;;;;;;;;9.10;99.90;;;;;;5075881;28;19970;-85
2023/01/13 04:37:24;;;;;;;;;;;9.10;99.90;;;;;;5075830;28;19909;-85
2023/01/13 04:39:50;;;;;;;;;;;9.00;99.90;;;;;;5075253;28;19909;-84
2023/01/13 04:42:15;;;;;;;;;;;9.00;99.90;;;;;;5075723;28;19909;-85
2023/01/13 04:44:41;;;;;;;;;;;9.00;99.90;;;;;;5074787;28;19938;-84
2023/01/13 04:47:06;;;;;;;;;;;9.00;99.90;;;;;;5074620;28;20385;-85
2023/01/13 04:49:32;;;;;;;;;;;9.00;99.90;;;;;;5074727;28;19934;-85
2023/01/13 04:51:57;;;;;;;;;;;9.10;99.90;;;;;;5074051;28;20427;-84
2023/01/13 04:54:23;;;;;;;;;;;9.10;99.90;;;;;;5073905;28;19917;-84
2023/01/13 04:56:48;;;;;;;;;;;9.10;99.90;;;;;;5071902;28;20015;-85
2023/01/13 04:59:13;;;;;;;;;;;9.20;99.90;;;;;;5071812;28;19908;-84
2023/01/13 05:01:39;;;;;;;;;;;9.30;99.90;;;;;;5071516;28;19912;-83
2023/01/13 05:04:05;;;;;;;;;;;9.30;99.90;;;;;;5071725;28;19908;-84
2023/01/13 05:06:30;;;;;;;;;;;9.30;99.90;;;;;;5071822;28;19909;-84
2023/01/13 05:08:56;;;;;;;;;;;9.30;99.90;;;;;;5071856;28;19908;-84
2023/01/13 05:17:02;;;;;;;;;;;9.30;99.90;;;;;;5074578;28;19954;-85
2023/01/13 05:19:32;;;;;;;;;;;9.20;99.90;;;;;;5072954;28;19909;-84
2023/01/13 05:27:26;;;;;;;;;;;9.10;99.90;;;;;;5073758;28;20007;-84
2023/01/13 05:29:52;;;;;;;;;;;9.20;99.90;;;;;;5073357;28;19956;-84
2023/01/13 05:32:18;;;;;;;;;;;9.20;99.90;;;;;;5073094;28;19916;-83
2023/01/13 05:34:43;;;;;;;;;;;9.20;99.90;;;;;;5072971;28;19967;-84
2023/01/13 05:37:09;;;;;;;;;;;9.30;99.90;;;;;;5071943;28;19908;-84
2023/01/13 05:45:04;;;;;;;;;;;9.40;99.90;;;;;;5073448;28;19935;-84
2023/01/13 05:47:30;;;;;;;;;;;9.40;99.90;;;;;;5071872;28;19999;-83
2023/01/13 05:49:55;;;;;;;;;;;9.40;99.90;;;;;;5073587;28;19976;-85
2023/01/13 05:52:21;;;;;;;;;;;9.50;99.90;;;;;;5072344;28;19963;-84
2023/01/13 05:54:46;;;;;;;;;;;9.40;99.90;;;;;;5075274;28;19923;-84
2023/01/13 05:57:12;;;;;;;;;;;9.30;99.90;;;;;;5075398;28;19909;-84
2023/01/13 05:59:37;;;;;;;;;;;9.20;99.90;;;;;;5075631;28;20346;-84
2023/01/13 06:02:02;;;;;;;;;;;9.20;99.90;;;;;;5075801;28;19908;-85
2023/01/13 06:04:28;;;;;;;;;;;9.20;99.90;;;;;;5075344;28;19908;-84
2023/01/13 06:06:54;;;;;;;;;;;9.20;99.90;;;;;;5075546;28;19995;-84
2023/01/13 06:09:21;;;;;;;;;;;9.20;99.90;;;;;;5075871;28;19908;-84
2023/01/13 06:11:47;;;;;;;;;;;9.20;99.90;;;;;;5076615;28;20445;-84
2023/01/13 06:14:12;;;;;;;;;;;9.30;99.90;;;;;;5076770;28;19947;-84
2023/01/13 06:16:38;;;;;;;;;;;9.30;99.90;;;;;;5076163;28;19963;-84
2023/01/13 06:19:07;;;;;;;;;;;9.40;99.90;;;;;;5076461;28;20364;-84
2023/01/13 06:21:33;;;;;;;;;;;9.40;99.90;;;;;;5075150;28;19908;-84
2023/01/13 06:23:59;;;;;;;;;;;9.40;99.90;;;;;;5076169;28;20405;-84
2023/01/13 06:26:26;;;;;;;;;;;9.50;99.90;;;;;;5075172;28;19908;-84
2023/01/13 06:28:52;;;;;;;;;;;9.40;99.90;;;;;;5075436;28;20039;-83
2023/01/13 06:31:17;;;;;;;;;;;9.50;99.90;;;;;;5075228;28;19971;-83
2023/01/13 06:33:46;;;;;;;;;;;9.50;99.90;;;;;;5076300;28;19908;-84
2023/01/13 06:36:18;;;;;;;;;;;9.50;99.90;;;;;;5074615;28;20381;-85
2023/01/13 06:38:46;;;;;;;;;;;9.50;99.90;;;;;;5074921;28;20011;-84
2023/01/13 06:41:11;;;;;;;;;;;9.40;99.90;;;;;;5076065;28;19909;-84
2023/01/13 06:43:37;;;;;;;;;;;9.40;99.90;;;;;;5077720;28;19947;-84
2023/01/13 06:46:03;;;;;;;;;;;9.30;99.90;;;;;;5076996;28;19915;-84
2023/01/13 06:48:34;;;;;;;;;;;9.20;99.90;;;;;;5077190;28;19935;-85
2023/01/13 06:51:03;;;;;;;;;;;9.20;99.90;;;;;;5074303;28;19912;-85
2023/01/13 06:53:28;;;;;;;;;;;9.30;99.90;;;;;;5074435;28;19922;-85
2023/01/13 06:55:54;;;;;;;;;;;9.30;99.90;;;;;;5075560;28;20354;-84
2023/01/13 06:58:19;;;;;;;;;;;9.20;99.90;;;;;;5074346;28;20030;-85
2023/01/13 07:00:50;;;;;;;;;;;9.20;99.90;;;;;;5074287;28;19908;-84
2023/01/13 07:03:15;;;;;;;;;;;9.20;99.90;;;;;;5073775;28;20007;-85
2023/01/13 07:05:42;;;;;;;;;;;9.20;99.90;;;;;;5073652;28;20008;-84
2023/01/13 07:08:08;;;;;;;;;;;9.20;99.90;;;;;;5074457;28;20170;-84
2023/01/13 07:10:33;;;;;;;;;;;9.10;99.90;;;;;;5074103;28;19912;-83
2023/01/13 07:15:51;;;;;;;;;;;9.10;99.90;;;;;;5075875;28;19931;-85
2023/01/13 07:18:16;;;;;;;;;;;9.10;99.90;;;;;;5074045;28;19908;-84
2023/01/13 07:20:42;;;;;;;;;;;9.10;99.90;;;;;;5073944;28;19977;-85
2023/01/13 07:23:07;;;;;;;;;;;9.10;99.90;;;;;;5073564;28;19919;-84
2023/01/13 07:25:33;;;;;;;;;;;9.00;99.90;;;;;;5075201;28;19908;-84
2023/01/13 07:27:58;;;;;;;;;;;8.90;99.90;;;;;;5074012;28;19908;-84
2023/01/13 07:30:24;;;;;;;;;;;8.90;99.90;;;;;;5073928;28;20014;-85
2023/01/13 07:32:49;;;;;;;;;;;8.90;99.90;;;;;;5073632;28;20364;-85
2023/01/13 07:35:16;;;;;;;;;;;8.90;99.90;;;;;;5075033;28;19908;-84
2023/01/13 07:37:41;;;;;;;;;;;8.90;99.90;;;;;;5073542;28;19915;-84
2023/01/13 07:40:07;;;;;;;;;;;8.80;99.90;;;;;;5074675;28;19912;-84
2023/01/13 07:45:17;;;;;;;;;;;8.80;99.90;;;;;;5075082;28;20405;-85
2023/01/13 07:47:42;;;;;;;;;;;8.80;99.90;;;;;;5073582;28;19912;-84
2023/01/13 07:50:08;;;;;;;;;;;8.70;99.90;;;;;;5075014;28;19908;-85
2023/01/13 07:52:34;;;;;;;;;;;8.80;99.90;;;;;;5074197;28;19913;-84
2023/01/13 07:54:59;;;;;;;;;;;8.70;99.90;;;;;;5073481;28;19964;-84
2023/01/13 07:57:25;;;;;;;;;;;8.70;99.90;;;;;;5074406;28;20003;-84
2023/01/13 07:59:50;;;;;;;;;;;8.70;99.90;;;;;;5069048;28;19930;-85
2023/01/13 08:02:16;;;;;;;;;;;8.80;99.90;;;;;;5069608;28;19909;-84
2023/01/13 08:04:41;;;;;;;;;;;8.80;99.90;;;;;;5071284;28;19913;-85
2023/01/13 08:07:06;;;;;;;;;;;8.70;99.90;;;;;;5072646;28;20478;-83
2023/01/13 08:09:32;;;;;;;;;;;8.80;99.90;;;;;;5075285;28;19908;-85
2023/01/13 08:14:41;;;;;;;;;;;8.80;99.90;;;;;;5076535;28;19931;-84
2023/01/13 08:17:07;;;;;;;;;;;8.80;99.90;;;;;;5073512;28;19913;-83
2023/01/13 08:19:33;;;;;;;;;;;8.90;99.90;;;;;;5073878;28;19912;-82
2023/01/13 08:21:58;;;;;;;;;;;8.90;99.90;;;;;;5077940;28;19909;-84
2023/01/13 08:24:24;;;;;;;;;;;8.90;99.90;;;;;;5083695;28;19995;-83
2023/01/13 08:26:49;;;;;;;;;;;9.00;99.90;;;;;;5084063;28;19915;-84
2023/01/13 08:29:15;;;;;;;;;;;9.10;99.90;;;;;;5084369;28;19908;-83
2023/01/13 08:31:40;;;;;;;;;;;9.10;99.90;;;;;;5084697;28;19913;-85
2023/01/13 08:34:06;;;;;;;;;;;9.20;99.90;;;;;;5084159;28;19919;-84
2023/01/13 08:36:31;;;;;;;;;;;9.20;99.90;;;;;;5079070;28;19915;-84
2023/01/13 08:38:57;;;;;;;;;;;9.20;99.90;;;;;;5077489;28;19912;-83
2023/01/13 08:44:08;;;;;;;;;;;9.30;99.90;;;;;;5077374;28;19920;-83
2023/01/13 08:46:34;;;;;;;;;;;9.30;99.90;;;;;;5075450;28;19908;-84
2023/01/13 08:48:59;;;;;;;;;;;9.40;99.90;;;;;;5077182;28;19912;-83
2023/01/13 08:51:25;;;;;;;;;;;9.40;99.90;;;;;;5076213;28;19913;-85
2023/01/13 08:53:50;;;;;;;;;;;9.40;99.90;;;;;;5075940;28;19917;-84
2023/01/13 08:56:16;;;;;;;;;;;9.50;99.90;;;;;;5077899;28;20330;-85
2023/01/13 08:58:41;;;;;;;;;;;9.60;99.90;;;;;;5078696;28;19912;-83
2023/01/13 09:01:07;;;;;;;;;;;9.70;99.90;;;;;;5074105;28;19919;-84
2023/01/13 09:03:32;;;;;;;;;;;9.80;99.90;;;;;;5075493;28;20313;-85
2023/01/13 09:05:58;;;;;;;;;;;9.80;99.90;;;;;;5077363;28;19908;-84
2023/01/13 09:08:23;;;;;;;;;;;9.80;99.90;;;;;;5078530;28;19913;-83
2023/01/13 09:10:49;;;;;;;;;;;9.90;99.90;;;;;;5077925;28;19913;-85
2023/01/13 09:13:15;;;;;;;;;;;10.00;99.90;;;;;;5078898;28;19912;-85
2023/01/13 09:15:43;;;;;;;;;;;10.20;99.90;;;;;;5076962;28;19915;-84
2023/01/13 09:18:09;;;;;;;;;;;10.20;99.90;;;;;;5075951;28;19913;-84
2023/01/13 09:20:34;;;;;;;;;;;10.30;99.90;;;;;;5068675;28;20352;-83
2023/01/13 09:23:00;;;;;;;;;;;10.20;99.90;;;;;;5076097;28;19913;-86
2023/01/13 09:25:25;;;;;;;;;;;10.10;99.90;;;;;;5076335;28;20007;-84
2023/01/13 09:27:51;;;;;;;;;;;10.20;99.90;;;;;;5076526;28;19913;-85
2023/01/13 09:30:16;;;;;;;;;;;10.10;99.90;;;;;;5075744;28;19912;-84
2023/01/13 09:32:42;;;;;;;;;;;10.10;99.90;;;;;;5075858;28;19983;-84
2023/01/13 09:35:08;;;;;;;;;;;10.10;99.90;;;;;;5077051;28;20003;-85
2023/01/13 09:37:35;;;;;;;;;;;10.20;99.90;;;;;;5076325;28;19990;-85
2023/01/13 09:40:01;;;;;;;;;;;10.20;99.90;;;;;;5074547;28;20432;-86
2023/01/13 09:45:26;;;;;;;;;;;10.30;99.90;;;;;;5071133;28;20020;-83
2023/01/13 09:48:10;;;;;;;;;;;10.50;99.90;;;;;;5080146;28;19915;-84
2023/01/13 09:50:48;;;;;;;;;;;10.70;99.90;;;;;;5071499;28;20317;-85
2023/01/13 09:53:18;;;;;;;;;;;10.90;99.90;;;;;;5071726;28;20282;-84
2023/01/13 09:55:44;;;;;;;;;;;10.80;99.90;;;;;;5058084;28;20302;-82
2023/01/13 09:58:12;;;;;;;;;;;10.60;99.90;;;;;;5068702;28;19909;-84
2023/01/13 10:00:45;;;;;;;;;;;10.60;99.90;;;;;;5071078;28;19987;-84
2023/01/13 10:03:17;;;;;;;;;;;10.60;99.90;;;;;;5074632;28;20374;-82
2023/01/13 10:05:43;;;;;;;;;;;10.70;99.90;;;;;;5074892;28;19909;-83
2023/01/13 10:08:15;;;;;;;;;;;10.50;99.90;;;;;;5073504;28;19954;-84
2023/01/13 10:10:43;;;;;;;;;;;10.60;99.90;;;;;;5073200;28;20320;-84
2023/01/13 10:13:18;;;;;;;;;;;10.50;99.90;;;;;;5072909;28;19970;-84
2023/01/13 10:15:51;;;;;;;;;;;10.60;99.90;;;;;;5090961;28;19912;-85
2023/01/13 10:18:35;;;;;;;;;;;10.70;99.90;;;;;;5074978;28;19916;-85
2023/01/13 10:21:18;;;;;;;;;;;10.90;99.90;;;;;;5073927;28;19916;-84
2023/01/13 10:24:10;;;;;;;;;;;11.00;99.90;;;;;;5073883;28;20259;-84
2023/01/13 10:26:47;;;;;;;;;;;11.40;99.90;;;;;;5036023;28;19948;-84
2023/01/13 10:29:24;;;;;;;;;;;11.50;99.90;;;;;;5074114;28;19908;-85
2023/01/13 10:31:50;;;;;;;;;;;11.50;99.90;;;;;;5090640;28;19913;-84
2023/01/13 10:34:16;;;;;;;;;;;11.60;99.90;;;;;;5074064;28;19909;-85
2023/01/13 10:36:52;;;;;;;;;;;11.60;99.90;;;;;;5074168;28;19993;-84
2023/01/13 10:39:20;;;;;;;;;;;11.60;99.90;;;;;;5075704;28;20590;-85
2023/01/13 10:41:45;;;;;;;;;;;11.70;99.90;;;;;;5077124;28;19915;-85
2023/01/13 10:44:14;;;;;;;;;;;11.80;99.90;;;;;;5076761;28;20353;-84
2023/01/13 10:46:57;;;;;;;;;;;11.70;99.90;;;;;;5076765;28;20515;-84
2023/01/13 10:49:27;;;;;;;;;;;11.60;99.90;;;;;;5076578;28;19915;-85
2023/01/13 10:51:53;;;;;;;;;;;11.40;99.90;;;;;;5078137;28;19958;-82
2023/01/13 10:54:21;;;;;;;;;;;11.40;99.90;;;;;;5077253;28;19916;-86
2023/01/13 10:56:46;;;;;;;;;;;11.60;99.90;;;;;;5076466;28;19924;-85
2023/01/13 10:59:15;;;;;;;;;;;11.50;99.90;;;;;;5076961;28;20417;-84
2023/01/13 11:01:42;;;;;;;;;;;11.40;99.90;;;;;;5078166;28;20357;-83
2023/01/13 11:04:28;;;;;;;;;;;11.50;99.90;;;;;;5076310;28;20434;-84
2023/01/13 11:06:53;;;;;;;;;;;11.50;99.90;;;;;;5077875;28;19909;-84
2023/01/13 11:09:19;;;;;;;;;;;11.50;99.90;;;;;;5074263;28;19909;-83
2023/01/13 11:11:46;;;;;;;;;;;11.40;99.90;;;;;;5075440;28;19912;-82
2023/01/13 11:14:35;;;;;;;;;;;11.40;99.90;;;;;;5074671;28;20316;-84
2023/01/13 11:17:08;;;;;;;;;;;11.60;99.90;;;;;;5075175;28;20011;-84
2023/01/13 11:19:35;;;;;;;;;;;11.60;99.90;;;;;;5075667;28;20297;-83
2023/01/13 11:22:01;;;;;;;;;;;11.80;99.90;;;;;;5075556;28;20579;-85
2023/01/13 11:24:26;;;;;;;;;;;12.20;99.90;;;;;;5076899;28;19955;-85
2023/01/13 11:26:54;;;;;;;;;;;12.30;99.90;;;;;;5075161;28;19912;-85
2023/01/13 11:29:25;;;;;;;;;;;11.90;99.90;;;;;;5076412;28;19948;-83
2023/01/13 11:31:53;;;;;;;;;;;11.90;99.90;;;;;;5074300;28;19913;-84
2023/01/13 11:34:34;;;;;;;;;;;11.90;99.90;;;;;;5075453;28;20297;-84
2023/01/13 11:37:00;;;;;;;;;;;11.90;99.90;;;;;;5073723;28;20412;-83
2023/01/13 11:39:29;;;;;;;;;;;12.20;99.90;;;;;;5074092;28;19912;-83
2023/01/13 11:42:35;;;;;;;;;;;12.00;99.90;;;;;;5073688;28;20003;-83
2023/01/13 11:45:12;;;;;;;;;;;12.00;99.90;;;;;;5073265;28;19955;-84
2023/01/13 11:47:37;;;;;;;;;;;12.00;99.90;;;;;;5073546;28;19919;-84
2023/01/13 11:50:03;;;;;;;;;;;12.10;99.90;;;;;;5072457;28;19908;-83
2023/01/13 11:52:33;;;;;;;;;;;12.00;99.90;;;;;;5072821;28;19916;-83
2023/01/13 11:55:05;;;;;;;;;;;11.90;99.90;;;;;;5074059;28;19959;-82
2023/01/13 11:57:45;;;;;;;;;;;11.70;99.90;;;;;;5072450;28;19943;-83
2023/01/13 12:00:26;;;;;;;;;;;11.80;99.90;;;;;;5073859;28;19915;-82
2023/01/13 12:02:58;;;;;;;;;;;11.60;99.90;;;;;;5072463;28;20002;-82
2023/01/13 12:05:26;;;;;;;;;;;11.80;99.90;;;;;;5073595;28;19912;-83
2023/01/13 12:07:52;;;;;;;;;;;11.90;99.90;;;;;;5073812;28;19940;-83
2023/01/13 12:10:32;;;;;;;;;;;11.70;99.90;;;;;;5068551;28;19982;-84
2023/01/13 12:13:03;;;;;;;;;;;11.50;99.90;;;;;;5072044;28;19962;-84
2023/01/13 12:15:34;;;;;;;;;;;11.50;99.90;;;;;;5072116;28;20366;-83
2023/01/13 12:18:18;;;;;;;;;;;11.90;99.90;;;;;;5072547;28;20275;-84
2023/01/13 12:20:51;;;;;;;;;;;13.10;99.90;;;;;;5071795;28;19917;-85
2023/01/13 12:23:23;;;;;;;;;;;13.90;99.90;;;;;;5072631;28;20609;-85
2023/01/13 12:25:51;;;;;;;;;;;14.00;99.90;;;;;;5072310;28;19908;-83
2023/01/13 12:28:21;;;;;;;;;;;14.60;99.90;;;;;;5073776;28;19919;-84
2023/01/13 12:30:46;;;;;;;;;;;14.60;99.90;;;;;;5088820;28;20281;-85
2023/01/13 12:33:32;;;;;;;;;;;14.70;99.90;;;;;;5072946;28;19913;-84
2023/01/13 12:36:00;;;;;;;;;;;14.70;99.90;;;;;;5072700;28;19951;-83
2023/01/13 12:38:32;;;;;;;;;;;15.10;99.90;;;;;;5071983;28;19932;-82
2023/01/13 12:41:16;;;;;;;;;;;15.60;99.90;;;;;;5072923;28;19916;-83
2023/01/13 12:46:29;;;;;;;;;;;13.90;99.90;;;;;;5072997;28;19954;-82
2023/01/13 12:48:58;;;;;;;;;;;13.00;99.90;;;;;;5072894;28;19912;-82
2023/01/13 12:51:26;;;;;;;;;;;12.40;99.90;;;;;;5071535;28;19918;-82
2023/01/13 12:53:53;;;;;;;;;;;11.80;99.90;;;;;;5071515;28;20019;-82
2023/01/13 12:56:31;;;;;;;;;;;11.40;99.90;;;;;;5072427;28;19909;-83
2023/01/13 12:59:20;;;;;;;;;;;11.20;99.90;;;;;;5073880;28;19913;-84
2023/01/13 13:01:46;;;;;;;;;;;10.70;99.90;;;;;;5072628;28;19909;-82
2023/01/13 13:04:15;;;;;;;;;;;10.20;99.90;;;;;;5072484;28;19908;-82
2023/01/13 13:06:44;;;;;;;;;;;10.00;99.90;;;;;;5073778;28;19908;-84
2023/01/13 13:09:30;;;;;;;;;;;9.80;99.90;;;;;;5073790;28;19908;-83
2023/01/13 13:14:36;;;;;;;;;;;9.70;99.90;;;;;;5073698;28;19917;-83
2023/01/13 13:17:02;;;;;;;;;;;9.70;99.90;;;;;;5072404;28;19962;-83
2023/01/13 13:19:31;;;;;;;;;;;9.70;99.90;;;;;;5072315;28;19915;-82
2023/01/13 13:22:11;;;;;;;;;;;9.80;99.90;;;;;;5070411;28;19912;-84
2023/01/13 13:24:38;;;;;;;;;;;9.90;99.90;;;;;;5057732;28;20386;-83
2023/01/13 13:27:23;;;;;;;;;;;9.90;99.90;;;;;;5069465;28;19914;-83
2023/01/13 13:29:57;;;;;;;;;;;9.90;99.90;;;;;;5071901;28;19972;-84
2023/01/13 13:32:38;;;;;;;;;;;9.90;99.90;;;;;;5065661;28;20424;-84
2023/01/13 13:35:06;;;;;;;;;;;9.80;99.90;;;;;;5073465;28;19909;-85
2023/01/13 13:46:45;;;;;;;;;;;9.80;99.90;;;;;;5074689;28;19915;-84
2023/01/13 13:48:57;;;;;;;;;;;9.80;99.90;;;;;;5051597;28;19962;-85
2023/01/13 13:51:36;;;;;;;;;;;9.80;99.90;;;;;;5051064;28;20435;-85
2023/01/13 13:54:02;;;;;;;;;;;9.80;99.90;;;;;;5064050;28;19923;-85
2023/01/13 13:56:28;;;;;;;;;;;10.00;99.90;;;;;;5071710;28;19912;-84
2023/01/13 13:58:54;;;;;;;;;;;10.00;99.90;;;;;;5071165;28;19909;-85
2023/01/13 14:01:31;;;;;;;;;;;10.10;99.90;;;;;;5070926;28;20270;-84
2023/01/13 14:04:04;;;;;;;;;;;10.20;99.90;;;;;;5071193;28;20364;-84
2023/01/13 14:06:31;;;;;;;;;;;10.20;99.90;;;;;;5071101;28;19908;-84
2023/01/13 14:08:57;;;;;;;;;;;10.20;99.90;;;;;;5071202;28;20285;-84
2023/01/13 14:11:32;;;;;;;;;;;10.20;99.90;;;;;;5070835;28;20011;-85
2023/01/13 14:14:02;;;;;;;;;;;10.30;99.90;;;;;;5072991;28;19912;-86
2023/01/13 14:16:28;;;;;;;;;;;10.30;99.90;;;;;;5071614;28;19913;-85
2023/01/13 14:18:53;;;;;;;;;;;10.40;99.90;;;;;;5075998;28;20019;-85
2023/01/13 14:21:26;;;;;;;;;;;10.60;99.90;;;;;;5075297;28;20328;-85
2023/01/13 14:23:56;;;;;;;;;;;10.50;99.90;;;;;;5076136;28;19960;-85
2023/01/13 14:26:22;;;;;;;;;;;10.50;99.90;;;;;;5075845;28;20250;-86
2023/01/13 14:28:48;;;;;;;;;;;10.60;99.90;;;;;;5076040;28;19954;-86
2023/01/13 14:31:14;;;;;;;;;;;10.50;99.90;;;;;;5074968;28;19912;-85
2023/01/13 14:33:43;;;;;;;;;;;10.60;99.90;;;;;;5075039;28;19912;-85
2023/01/13 14:36:12;;;;;;;;;;;10.50;99.90;;;;;;5075179;28;20403;-84
2023/01/13 14:38:38;;;;;;;;;;;10.50;99.90;;;;;;5074811;28;19952;-86
2023/01/13 14:41:21;;;;;;;;;;;10.40;99.90;;;;;;5075312;28;20358;-86
2023/01/13 14:43:47;;;;;;;;;;;10.30;99.90;;;;;;5074586;28;19909;-86
2023/01/13 14:46:13;;;;;;;;;;;10.30;99.90;;;;;;5075739;28;19930;-83
2023/01/13 14:48:42;;;;;;;;;;;10.40;99.90;;;;;;5075304;28;19909;-85
2023/01/13 14:51:09;;;;;;;;;;;10.40;99.90;;;;;;5075608;28;20378;-85
2023/01/13 14:53:37;;;;;;;;;;;10.30;99.90;;;;;;5076061;28;19916;-86
2023/01/13 14:56:21;;;;;;;;;;;10.30;99.90;;;;;;5094431;28;19904;-86
2023/01/13 14:58:48;;;;;;;;;;;10.30;99.90;;;;;;5074200;28;19912;-85
2023/01/13 15:01:28;;;;;;;;;;;10.30;99.90;;;;;;5073674;28;19923;-85
2023/01/13 15:03:53;;;;;;;;;;;10.20;99.90;;;;;;5073974;28;19916;-85
2023/01/13 15:06:23;;;;;;;;;;;10.10;99.90;;;;;;5073928;28;19916;-84
2023/01/13 15:08:49;;;;;;;;;;;10.00;99.90;;;;;;5073871;28;19908;-85
2023/01/13 15:11:20;;;;;;;;;;;10.00;99.90;;;;;;5073401;28;19912;-84
2023/01/13 15:13:48;;;;;;;;;;;9.90;99.90;;;;;;5073924;28;19943;-86
2023/01/13 15:16:16;;;;;;;;;;;9.80;99.90;;;;;;5073560;28;19912;-85
2023/01/13 15:18:41;;;;;;;;;;;9.80;99.90;;;;;;5075412;28;19999;-87
2023/01/13 15:21:07;;;;;;;;;;;9.70;99.90;;;;;;5073353;28;19960;-84
2023/01/13 15:23:32;;;;;;;;;;;9.70;99.90;;;;;;5073825;28;19909;-85
2023/01/13 15:25:58;;;;;;;;;;;9.70;99.90;;;;;;5072617;28;19913;-86
2023/01/13 15:28:25;;;;;;;;;;;9.70;99.90;;;;;;5073714;28;19909;-84